Аэропорт: Бегишево. Набережные Челны, Нижнекамск

ICAO: UWKE

METAR:
2019-07-23 18:30:00
UWKE 231830Z 30003MPS 9999 SCT034 17/15 Q1015 R21/210355 NOSIG RMK QFE744/0992
METAR:
2019-07-23 16:45:00
TAF UWKE 231645Z 2318/2418 30003G09MPS 9999 BKN020 TEMPO 2318/2320 31005MPS 3100 -SHRA BKN011CB TEMPO 2320/2406 VRB01MPS 0300 SHRA FG BKN002 BKN015CB